createdAt,value
2022-10-07T00:02:31.294Z,88.53
2022-10-07T00:07:33.957Z,87.87
2022-10-07T00:12:36.649Z,90.35
2022-10-07T00:17:39.110Z,89.63
2022-10-07T00:22:41.430Z,87.75
2022-10-07T00:27:43.912Z,91.82
2022-10-07T00:32:46.457Z,93.64
2022-10-07T00:37:48.821Z,86.41
2022-10-07T00:42:53.744Z,87.91
2022-10-07T00:47:56.995Z,85.77
2022-10-07T00:53:02.356Z,89.11
2022-10-07T00:58:09.417Z,89.41
2022-10-07T01:03:12.816Z,91.97
2022-10-07T01:08:15.940Z,89.88
2022-10-07T01:13:33.697Z,92.17
2022-10-07T01:18:41.719Z,85.47
2022-10-07T01:23:52.811Z,86.95
2022-10-07T01:29:04.313Z,85.56
2022-10-07T01:34:09.719Z,91.67
2022-10-07T01:39:15.746Z,89.15
2022-10-07T01:44:18.732Z,86.69
2022-10-07T01:49:21.989Z,88.77
2022-10-07T01:55:01.829Z,89.85
2022-10-07T02:00:10.961Z,91.47
2022-10-07T02:05:51.399Z,90.14
2022-10-07T02:11:12.208Z,92.93
2022-10-07T02:16:36.784Z,91.60
2022-10-07T02:21:42.002Z,96.13
2022-10-07T02:26:45.396Z,90.86
2022-10-07T02:31:50.955Z,89.80
2022-10-07T02:37:02.994Z,87.66
2022-10-07T02:42:25.398Z,89.95
2022-10-07T02:47:33.255Z,92.81
2022-10-07T02:52:37.463Z,100.00
2022-10-07T02:57:47.231Z,94.91
2022-10-07T03:03:05.263Z,91.92
2022-10-07T03:08:30.532Z,92.72
2022-10-07T03:13:35.433Z,93.29
2022-10-07T03:18:39.084Z,93.42
2022-10-07T03:24:05.200Z,92.64
2022-10-07T03:29:13.968Z,90.35
2022-10-07T03:34:17.228Z,92.35
2022-10-07T03:39:23.327Z,96.50
2022-10-07T03:44:26.402Z,97.71
2022-10-07T03:49:30.728Z,93.09
2022-10-07T03:54:33.779Z,91.43
2022-10-07T03:59:36.559Z,95.50
2022-10-07T04:04:40.527Z,92.66
2022-10-07T04:09:42.941Z,90.06
2022-10-07T04:14:45.508Z,95.95
2022-10-07T04:19:48.069Z,93.48
2022-10-07T04:25:11.119Z,95.26
2022-10-07T04:30:14.249Z,92.96
2022-10-07T04:35:18.690Z,94.48
2022-10-07T04:40:22.357Z,91.99
2022-10-07T04:45:25.704Z,99.11
2022-10-07T04:50:29.257Z,99.43
2022-10-07T04:55:42.221Z,93.20
2022-10-07T05:00:50.385Z,96.03
2022-10-07T05:05:56.966Z,93.09
2022-10-07T05:11:02.523Z,98.67
2022-10-07T05:16:12.241Z,100.00
2022-10-07T05:21:17.010Z,99.24
2022-10-07T05:26:22.011Z,100.00
2022-10-07T05:31:29.921Z,100.00
2022-10-07T05:36:36.412Z,99.62
2022-10-07T05:41:45.575Z,94.41
2022-10-07T05:46:51.574Z,98.75
2022-10-07T05:51:54.831Z,98.71
2022-10-07T05:56:57.404Z,99.16
2022-10-07T06:02:01.103Z,94.71
2022-10-07T06:07:05.596Z,94.79
2022-10-07T06:12:29.323Z,92.34
2022-10-07T06:17:33.282Z,93.95
2022-10-07T06:22:39.328Z,94.82
2022-10-07T06:27:41.864Z,88.31
2022-10-07T06:32:44.471Z,87.84
2022-10-07T06:37:47.729Z,88.36
2022-10-07T06:42:50.652Z,88.28
2022-10-07T06:48:15.945Z,87.56
2022-10-07T06:53:19.689Z,86.21
2022-10-07T06:58:22.558Z,83.74
2022-10-07T07:03:27.260Z,82.50
2022-10-07T07:08:32.340Z,81.04
2022-10-07T07:13:38.830Z,79.12
2022-10-07T07:18:43.523Z,77.10
2022-10-07T07:23:46.203Z,76.06
2022-10-07T07:28:55.333Z,75.69
2022-10-07T07:34:01.717Z,77.51
2022-10-07T07:39:09.899Z,80.88
2022-10-07T07:44:15.121Z,82.78
2022-10-07T07:49:18.257Z,82.75
2022-10-07T07:54:21.159Z,81.53
2022-10-07T07:59:27.400Z,82.56
2022-10-07T08:04:32.792Z,84.32
2022-10-07T08:09:41.996Z,84.20
2022-10-07T08:14:44.543Z,83.23
2022-10-07T08:19:48.457Z,82.71
2022-10-07T08:24:51.054Z,82.08
2022-10-07T08:29:56.173Z,81.30
2022-10-07T08:34:59.196Z,74.37
2022-10-07T08:40:01.824Z,67.12
2022-10-07T08:45:05.568Z,63.06
2022-10-07T08:50:19.899Z,63.63
2022-10-07T08:55:22.559Z,64.89
2022-10-07T09:00:25.097Z,70.11
2022-10-07T09:05:34.184Z,73.52
2022-10-07T09:10:50.716Z,76.57
2022-10-07T09:16:14.086Z,77.74
2022-10-07T09:21:22.806Z,78.96
2022-10-07T09:26:27.486Z,78.54
2022-10-07T09:31:32.816Z,77.31
2022-10-07T09:37:00.683Z,76.42
2022-10-07T09:42:07.213Z,75.52
2022-10-07T09:47:29.172Z,75.06
2022-10-07T09:52:32.778Z,76.03
2022-10-07T09:57:36.971Z,75.71
2022-10-07T10:02:48.551Z,73.98
2022-10-07T10:08:03.714Z,73.65
2022-10-07T10:13:23.553Z,73.83
2022-10-07T10:18:42.131Z,72.52
2022-10-07T10:23:53.147Z,74.12
2022-10-07T10:29:19.142Z,73.29
2022-10-07T10:34:50.007Z,73.67
2022-10-07T10:40:23.160Z,72.28
2022-10-07T10:45:35.145Z,72.12
2022-10-07T10:50:45.551Z,70.83
2022-10-07T10:56:17.474Z,68.20
2022-10-07T11:01:40.842Z,61.98
2022-10-07T11:06:48.816Z,53.40
2022-10-07T11:11:51.570Z,47.33
2022-10-07T11:17:01.203Z,47.03
2022-10-07T11:22:04.266Z,47.93
2022-10-07T11:27:23.831Z,55.05
2022-10-07T11:32:36.182Z,61.10
2022-10-07T11:37:43.079Z,65.79
2022-10-07T11:42:50.380Z,68.62
2022-10-07T11:47:58.939Z,68.88
2022-10-07T11:53:06.639Z,67.43
2022-10-07T11:58:25.470Z,68.55
2022-10-07T12:03:34.689Z,71.28
2022-10-07T12:08:40.657Z,70.43
2022-10-07T12:13:46.249Z,70.23
2022-10-07T12:19:10.515Z,70.11
2022-10-07T12:24:16.586Z,71.69
2022-10-07T12:29:35.661Z,70.54
2022-10-07T12:34:41.424Z,70.65
2022-10-07T12:39:44.090Z,70.90
2022-10-07T12:44:52.686Z,72.34
2022-10-07T12:50:07.223Z,70.63
2022-10-07T12:55:16.329Z,68.71
2022-10-07T13:00:18.641Z,70.28
2022-10-07T13:05:58.632Z,72.44
2022-10-07T13:11:47.554Z,74.37
2022-10-07T13:16:56.070Z,72.99
2022-10-07T13:22:18.748Z,70.09
2022-10-07T13:27:25.569Z,59.01
2022-10-07T13:32:34.427Z,56.19
2022-10-07T13:37:45.230Z,57.60
2022-10-07T13:42:59.264Z,56.69
2022-10-07T13:48:01.765Z,55.57
2022-10-07T13:53:04.304Z,52.49
2022-10-07T13:58:07.249Z,49.03
2022-10-07T14:03:17.304Z,51.86
2022-10-07T14:08:22.578Z,57.08
2022-10-07T14:13:28.970Z,59.04
2022-10-07T14:18:31.856Z,63.13
2022-10-07T14:23:37.871Z,67.52
2022-10-07T14:28:42.020Z,69.06
2022-10-07T14:34:29.839Z,69.57
2022-10-07T14:39:32.431Z,71.13
2022-10-07T14:44:35.144Z,69.45
2022-10-07T14:49:37.835Z,70.35
2022-10-07T14:54:41.087Z,72.61
2022-10-07T14:59:43.460Z,73.80
2022-10-07T15:04:46.915Z,72.30
2022-10-07T15:09:49.358Z,72.79
2022-10-07T15:14:52.032Z,73.71
2022-10-07T15:19:54.551Z,74.52
2022-10-07T15:24:57.519Z,75.36
2022-10-07T15:30:02.875Z,76.20
2022-10-07T15:35:05.720Z,77.30
2022-10-07T15:40:08.931Z,77.70
2022-10-07T15:45:11.686Z,78.23
2022-10-07T15:50:16.524Z,80.33
2022-10-07T15:55:19.541Z,81.50
2022-10-07T16:00:22.134Z,82.47
2022-10-07T16:05:24.523Z,82.58
2022-10-07T16:10:27.104Z,83.54
2022-10-07T16:15:29.560Z,84.25
2022-10-07T16:20:31.959Z,84.51
2022-10-07T16:25:36.440Z,84.15
2022-10-07T16:30:43.249Z,85.14
2022-10-07T16:35:45.777Z,85.60
2022-10-07T16:40:54.881Z,86.62
2022-10-07T16:46:03.054Z,88.03
2022-10-07T16:51:12.595Z,89.56
2022-10-07T16:56:19.189Z,90.48
2022-10-07T17:01:21.631Z,89.60
2022-10-07T17:06:25.555Z,88.33
2022-10-07T17:11:31.273Z,90.67
2022-10-07T17:16:42.888Z,92.13
2022-10-07T17:21:47.645Z,91.30
2022-10-07T17:26:53.099Z,89.93
2022-10-07T17:31:56.097Z,90.46
2022-10-07T17:36:59.741Z,90.39
2022-10-07T17:42:02.103Z,90.36
2022-10-07T17:47:05.348Z,91.14
2022-10-07T17:52:08.055Z,90.03
2022-10-07T17:57:10.500Z,88.64
2022-10-07T18:02:13.095Z,87.50
2022-10-07T18:07:16.788Z,87.11
2022-10-07T18:12:38.505Z,87.23
2022-10-07T18:17:40.899Z,89.12
2022-10-07T18:22:44.262Z,90.72
2022-10-07T18:27:46.918Z,92.56
2022-10-07T18:32:52.576Z,94.77
2022-10-07T18:37:54.990Z,93.38
2022-10-07T18:42:57.406Z,96.03
2022-10-07T18:48:00.046Z,99.02
2022-10-07T18:53:02.561Z,98.18
2022-10-07T18:58:04.928Z,99.75
2022-10-07T19:03:08.050Z,100.00
2022-10-07T19:08:10.559Z,100.00
2022-10-07T19:13:46.784Z,100.00
2022-10-07T19:18:54.534Z,100.00
2022-10-07T19:23:58.883Z,100.00
2022-10-07T19:29:02.151Z,100.00
2022-10-07T19:34:08.240Z,100.00
2022-10-07T19:39:11.208Z,100.00
2022-10-07T19:44:17.354Z,100.00
2022-10-07T19:49:19.966Z,100.00
2022-10-07T19:54:22.344Z,100.00
2022-10-07T19:59:25.258Z,100.00
2022-10-07T20:04:27.692Z,100.00
2022-10-07T20:09:30.139Z,100.00
2022-10-07T20:14:33.082Z,100.00
2022-10-07T20:19:35.690Z,100.00
2022-10-07T20:24:38.490Z,100.00
2022-10-07T20:29:57.219Z,100.00
2022-10-07T20:35:00.550Z,100.00
2022-10-07T20:40:22.040Z,100.00
2022-10-07T20:45:24.459Z,100.00
2022-10-07T20:50:26.811Z,100.00
2022-10-07T20:55:31.962Z,100.00
2022-10-07T21:00:38.424Z,100.00
2022-10-07T21:05:40.871Z,100.00
2022-10-07T21:10:43.221Z,100.00
2022-10-07T21:15:45.637Z,100.00
2022-10-07T21:20:56.921Z,100.00
2022-10-07T21:26:05.444Z,100.00
2022-10-07T21:31:11.519Z,100.00
2022-10-07T21:36:17.035Z,100.00
2022-10-07T21:41:22.976Z,100.00
2022-10-07T21:46:27.148Z,100.00
2022-10-07T21:51:29.761Z,100.00
2022-10-07T21:56:33.620Z,100.00
2022-10-07T22:01:36.122Z,100.00
2022-10-07T22:06:57.329Z,100.00
2022-10-07T22:11:59.858Z,100.00
2022-10-07T22:17:02.195Z,100.00
2022-10-07T22:22:04.623Z,100.00
2022-10-07T22:27:07.177Z,100.00
2022-10-07T22:32:09.794Z,100.00
2022-10-07T22:37:12.196Z,100.00
2022-10-07T22:42:14.539Z,100.00
2022-10-07T22:47:17.001Z,100.00
2022-10-07T22:52:19.372Z,100.00
2022-10-07T22:57:21.902Z,100.00
2022-10-07T23:02:24.609Z,100.00
2022-10-07T23:07:28.296Z,100.00
2022-10-07T23:12:30.731Z,100.00
2022-10-07T23:17:33.072Z,100.00
2022-10-07T23:22:35.707Z,100.00
2022-10-07T23:27:39.504Z,100.00
2022-10-07T23:32:46.078Z,100.00
2022-10-07T23:37:48.579Z,100.00
2022-10-07T23:42:50.989Z,100.00
2022-10-07T23:47:53.981Z,100.00
2022-10-07T23:52:56.323Z,100.00
2022-10-07T23:57:58.668Z,100.00
